Time;durP1;ratioP1;P1;durP2;ratioP2;P2;SDS_P1;SDS_P2;PMS_P1;PMS_P2;Temp;Humidity;BMP_temperature;BMP_pressure;BME280_temperature;BME280_humidity;BME280_pressure;Samples;Min_cycle;Max_cycle;Signal;HPM_P1;HPM_P2
2022/03/07 00:01:18;;;;;;;15.10;7.82;;;;;;;-2.41;100.00;95445.25;5014183;28;20120;-63
2022/03/07 00:03:52;;;;;;;13.80;7.47;;;;;;;-2.39;100.00;95448.53;5014312;28;20528;-63
2022/03/07 00:06:21;;;;;;;15.10;7.47;;;;;;;-2.45;100.00;95447.44;5030633;28;20029;-63
2022/03/07 00:08:49;;;;;;;15.32;7.55;;;;;;;-2.51;100.00;95444.69;4982203;28;20056;-62
2022/03/07 00:11:24;;;;;;;13.32;7.05;;;;;;;-2.55;100.00;95438.16;5012562;28;20032;-62
2022/03/07 00:13:49;;;;;;;15.82;7.32;;;;;;;-2.58;100.00;95438.53;5012146;28;20033;-62
2022/03/07 00:16:16;;;;;;;14.55;7.80;;;;;;;-2.60;100.00;95441.31;4989156;28;20022;-62
2022/03/07 00:18:42;;;;;;;16.02;7.80;;;;;;;-2.59;100.00;95439.53;5012443;28;20022;-62
2022/03/07 00:21:13;;;;;;;13.95;7.82;;;;;;;-2.62;100.00;95435.41;5012334;28;20037;-62
2022/03/07 00:23:39;;;;;;;13.40;7.22;;;;;;;-2.64;100.00;95437.41;5012243;28;20032;-62
2022/03/07 00:26:10;;;;;;;13.73;7.35;;;;;;;-2.66;100.00;95434.97;4994629;28;20408;-61
2022/03/07 00:28:39;;;;;;;13.38;7.07;;;;;;;-2.67;100.00;95432.50;4994771;28;20358;-62
2022/03/07 00:31:11;;;;;;;14.20;7.68;;;;;;;-2.66;100.00;95439.38;4994667;28;20056;-60
2022/03/07 00:33:36;;;;;;;13.20;7.15;;;;;;;-2.67;100.00;95432.50;5014516;28;20048;-60
2022/03/07 00:36:03;;;;;;;13.75;7.75;;;;;;;-2.69;100.00;95439.75;5016102;28;20117;-61
2022/03/07 00:38:28;;;;;;;13.02;6.93;;;;;;;-2.67;100.00;95429.91;5015781;28;20029;-58
2022/03/07 00:40:54;;;;;;;13.20;7.22;;;;;;;-2.68;100.00;95429.06;5015750;28;20029;-62
2022/03/07 00:43:21;;;;;;;14.38;7.57;;;;;;;-2.72;100.00;95429.59;4969728;28;20459;-59
2022/03/07 00:45:52;;;;;;;13.05;7.47;;;;;;;-2.75;100.00;95424.69;4982251;28;20034;-61
2022/03/07 00:48:21;;;;;;;11.80;7.20;;;;;;;-2.80;100.00;95419.19;5015740;28;20020;-60
2022/03/07 00:50:51;;;;;;;12.23;6.88;;;;;;;-2.81;100.00;95418.38;4998198;28;20033;-60
2022/03/07 00:53:25;;;;;;;12.40;6.93;;;;;;;-2.82;100.00;95419.34;5015578;28;20101;-60
2022/03/07 00:55:55;;;;;;;11.07;6.47;;;;;;;-2.82;100.00;95415.88;5015686;28;20030;-59
2022/03/07 00:58:26;;;;;;;14.48;7.47;;;;;;;-2.83;100.00;95415.06;5015435;28;20389;-57
2022/03/07 01:00:55;;;;;;;12.93;7.18;;;;;;;-2.82;100.00;95416.72;4998023;28;20046;-60
2022/03/07 01:03:20;;;;;;;17.48;7.68;;;;;;;-2.79;100.00;95413.75;5015630;28;20028;-60
2022/03/07 01:05:46;;;;;;;14.20;6.70;;;;;;;-2.76;100.00;95412.59;4997848;28;20018;-58
2022/03/07 01:08:17;;;;;;;14.27;7.22;;;;;;;-2.74;100.00;95418.47;5027120;28;20629;-58
2022/03/07 01:10:43;;;;;;;11.43;6.80;;;;;;;-2.73;100.00;95417.47;5025815;28;20036;-58
2022/03/07 01:13:09;;;;;;;12.23;6.70;;;;;;;-2.75;100.00;95411.59;5035046;28;20025;-56
2022/03/07 01:15:34;;;;;;;12.20;7.38;;;;;;;-2.73;100.00;95414.84;5009909;28;20121;-58
2022/03/07 01:18:00;;;;;;;12.25;6.85;;;;;;;-2.72;100.00;95413.84;5030728;28;20033;-58
2022/03/07 01:20:27;;;;;;;15.85;8.00;;;;;;;-2.70;100.00;95410.09;5017121;28;20094;-59
2022/03/07 01:22:52;;;;;;;13.60;7.15;;;;;;;-2.71;100.00;95405.03;5034798;28;20076;-59
2022/03/07 01:25:18;;;;;;;11.88;6.85;;;;;;;-2.68;100.00;95408.09;5034926;28;20167;-56
2022/03/07 01:27:43;;;;;;;11.27;6.88;;;;;;;-2.69;100.00;95408.28;5034689;28;20388;-59
2022/03/07 01:30:12;;;;;;;10.70;6.85;;;;;;;-2.70;100.00;95399.59;5034824;28;20061;-60
2022/03/07 01:32:46;;;;;;;12.45;6.88;;;;;;;-2.73;100.00;95402.56;5034938;28;20415;-59
2022/03/07 01:35:12;;;;;;;12.13;6.95;;;;;;;-2.74;100.00;95400.09;5034568;28;20037;-59
2022/03/07 01:37:38;;;;;;;13.95;7.22;;;;;;;-2.70;100.00;95401.41;5034558;28;20018;-60
2022/03/07 01:40:05;;;;;;;13.88;7.63;;;;;;;-2.75;100.00;95393.25;5034647;28;20037;-60
2022/03/07 01:42:30;;;;;;;11.27;6.80;;;;;;;-2.73;100.00;95396.50;5034610;28;20029;-58
2022/03/07 01:45:14;;;;;;;11.13;6.43;;;;;;;-2.76;100.00;95387.19;5033668;28;20486;-56
2022/03/07 01:47:43;;;;;;;11.15;6.65;;;;;;;-2.78;100.00;95385.72;5016463;28;20100;-59
2022/03/07 01:50:12;;;;;;;14.75;7.35;;;;;;;-2.77;100.00;95385.56;5033057;28;20103;-60
2022/03/07 01:52:40;;;;;;;12.25;6.60;;;;;;;-2.79;100.00;95387.53;5034442;28;20029;-55
2022/03/07 01:55:08;;;;;;;14.05;6.90;;;;;;;-2.79;100.00;95376.25;5034265;28;20488;-59
2022/03/07 01:57:38;;;;;;;12.45;6.95;;;;;;;-2.78;100.00;95389.16;5033891;28;20107;-56
2022/03/07 02:00:09;;;;;;;14.85;7.70;;;;;;;-2.77;100.00;95385.56;5034050;28;20029;-60
2022/03/07 02:02:35;;;;;;;12.85;7.32;;;;;;;-2.79;100.00;95384.09;5034273;28;20025;-56
2022/03/07 02:05:08;;;;;;;12.95;7.45;;;;;;;-2.82;100.00;95380.03;5016236;28;20033;-57
2022/03/07 02:07:33;;;;;;;;;;;;;;;-2.85;100.00;95384.78;5034444;28;20510;-57
2022/03/07 02:10:03;;;;;;;13.65;6.75;;;;;;;-2.86;100.00;95370.06;5003080;28;19913;-58
2022/03/07 02:12:28;;;;;;;12.32;7.03;;;;;;;-2.85;100.00;95382.16;5033976;28;20108;-56
2022/03/07 02:14:54;;;;;;;13.43;7.07;;;;;;;-2.87;100.00;95384.97;5031748;28;20108;-58
2022/03/07 02:17:22;;;;;;;11.13;6.82;;;;;;;-2.92;100.00;95379.44;5024865;28;20021;-59
2022/03/07 02:19:51;;;;;;;10.93;6.47;;;;;;;-2.94;100.00;95376.97;5033775;28;20080;-58
2022/03/07 02:22:19;;;;;;;13.32;7.00;;;;;;;-2.94;100.00;95370.91;5016100;28;20025;-59
2022/03/07 02:24:51;;;;;;;11.75;6.90;;;;;;;-2.95;100.00;95377.97;5015850;28;20095;-58
2022/03/07 02:27:18;;;;;;;11.40;7.13;;;;;;;-2.95;100.00;95369.28;5033455;28;20025;-58
2022/03/07 02:29:49;;;;;;;10.82;6.90;;;;;;;-2.96;100.00;95370.28;5033633;28;20029;-60
2022/03/07 02:32:21;;;;;;;16.08;7.13;;;;;;;-2.97;100.00;95373.91;5032259;28;20538;-56
2022/03/07 02:34:53;;;;;;;12.10;6.77;;;;;;;-2.93;100.00;95377.81;5033897;28;20500;-58
2022/03/07 02:37:21;;;;;;;14.07;7.90;;;;;;;-2.96;100.00;95376.34;5033222;28;20620;-56
2022/03/07 02:39:47;;;;;;;12.07;7.13;;;;;;;-2.96;100.00;95381.59;5031976;28;20025;-59
2022/03/07 02:42:21;;;;;;;12.73;7.35;;;;;;;-2.97;100.00;95379.13;5015633;28;20029;-58
2022/03/07 02:44:49;;;;;;;10.05;6.85;;;;;;;-3.02;100.00;95378.84;5033362;28;20029;-58
2022/03/07 02:47:24;;;;;;;10.63;7.07;;;;;;;-3.06;100.00;95381.00;5031941;28;20033;-59
2022/03/07 02:49:53;;;;;;;13.30;6.28;;;;;;;-3.06;100.00;95381.00;5033390;28;20056;-57
2022/03/07 02:52:24;;;;;;;10.77;6.53;;;;;;;-3.05;100.00;95380.00;5033598;28;20495;-54
2022/03/07 02:54:53;;;;;;;12.80;7.00;;;;;;;-3.02;100.00;95377.06;5033257;28;20029;-57
2022/03/07 02:57:21;;;;;;;12.75;6.90;;;;;;;-3.02;100.00;95378.84;5032663;28;20028;-59
2022/03/07 02:59:47;;;;;;;8.13;5.93;;;;;;;-3.06;100.00;95374.94;5033192;28;20083;-55
2022/03/07 03:02:15;;;;;;;10.20;6.93;;;;;;;-3.06;100.00;95373.13;5031714;28;20037;-57
2022/03/07 03:04:41;;;;;;;11.40;7.10;;;;;;;-3.02;100.00;95382.28;5033247;28;20083;-58
2022/03/07 03:07:06;;;;;;;10.65;6.40;;;;;;;-3.02;100.00;95374.44;5032648;28;20049;-60
2022/03/07 03:09:38;;;;;;;10.65;7.05;;;;;;;-3.05;100.00;95373.94;5015883;28;20116;-59
2022/03/07 03:12:04;;;;;;;9.85;6.57;;;;;;;-3.07;100.00;95387.22;5032920;28;20452;-59
2022/03/07 03:14:30;;;;;;;9.90;7.20;;;;;;;-3.07;100.00;95375.94;5032805;28;20061;-59
2022/03/07 03:17:02;;;;;;;10.13;6.38;;;;;;;-3.09;100.00;95381.34;5021960;28;20021;-58
2022/03/07 03:19:27;;;;;;;13.43;6.57;;;;;;;-3.12;100.00;95380.88;5031358;28;20091;-57
2022/03/07 03:21:52;;;;;;;13.50;7.13;;;;;;;-3.14;100.00;95381.06;5032696;28;20033;-58
2022/03/07 03:24:24;;;;;;;12.13;6.25;;;;;;;-3.20;100.00;95381.75;5032619;28;20073;-57
2022/03/07 03:26:52;;;;;;;12.30;6.78;;;;;;;-3.22;100.00;95381.91;5031316;28;20033;-59
2022/03/07 03:29:18;;;;;;;11.07;6.82;;;;;;;-3.28;100.00;95379.16;5032567;28;20017;-54
2022/03/07 03:31:43;;;;;;;11.98;7.18;;;;;;;-3.33;100.00;95376.25;5031437;28;20024;-61
2022/03/07 03:34:09;;;;;;;11.13;6.90;;;;;;;-3.31;100.00;95374.28;5032408;28;20075;-60
2022/03/07 03:36:34;;;;;;;12.23;6.65;;;;;;;-3.35;100.00;95373.00;5032573;28;20029;-54
2022/03/07 03:39:01;;;;;;;14.82;7.25;;;;;;;-3.37;100.00;95367.91;5032439;28;20125;-58
2022/03/07 03:41:27;;;;;;;12.43;6.70;;;;;;;-3.37;100.00;95364.47;5014760;28;20025;-58
2022/03/07 03:43:52;;;;;;;11.95;7.45;;;;;;;-3.36;100.00;95359.09;5032894;28;20036;-59
2022/03/07 03:46:17;;;;;;;12.00;6.82;;;;;;;-3.37;100.00;95369.72;5032331;28;20107;-57
2022/03/07 03:48:43;;;;;;;10.95;6.75;;;;;;;-3.42;100.00;95361.56;5032278;28;20504;-58
2022/03/07 03:51:08;;;;;;;12.80;7.00;;;;;;;-3.43;100.00;95373.03;5032623;28;20087;-58
2022/03/07 03:53:33;;;;;;;12.20;6.93;;;;;;;-3.43;100.00;95373.84;5032306;28;20542;-60
2022/03/07 03:55:59;;;;;;;14.90;7.18;;;;;;;-3.41;100.00;95379.72;5031002;28;20029;-58
2022/03/07 03:58:24;;;;;;;13.52;6.63;;;;;;;-3.45;100.00;95383.69;5030862;28;20495;-60
2022/03/07 04:00:52;;;;;;;10.65;6.95;;;;;;;-3.46;100.00;95379.44;5032309;28;20510;-61
2022/03/07 04:03:18;;;;;;;10.18;6.50;;;;;;;-3.44;100.00;95385.31;5031986;28;20045;-59
2022/03/07 04:05:44;;;;;;;12.38;7.25;;;;;;;-3.45;100.00;95388.09;5014559;28;20029;-59
2022/03/07 04:08:18;;;;;;;11.38;6.90;;;;;;;-3.50;100.00;95381.56;5013620;28;20512;-59
2022/03/07 04:10:46;;;;;;;11.63;6.97;;;;;;;-3.51;100.00;95384.34;5026604;28;20087;-58
2022/03/07 04:13:12;;;;;;;12.82;6.70;;;;;;;-3.57;100.00;95380.63;5018624;28;20021;-57
2022/03/07 04:15:38;;;;;;;12.20;7.47;;;;;;;-3.59;100.00;95379.13;5028295;28;20440;-56
2022/03/07 04:18:05;;;;;;;13.85;7.50;;;;;;;-3.62;100.00;95376.88;5031614;28;20029;-59
2022/03/07 04:20:31;;;;;;;12.52;7.38;;;;;;;-3.63;100.00;95377.84;5027263;28;20377;-56
2022/03/07 04:23:00;;;;;;;16.27;7.03;;;;;;;-3.63;100.00;95370.00;5036275;28;20032;-55
2022/03/07 04:25:26;;;;;;;11.05;6.93;;;;;;;-3.66;100.00;95371.16;5018744;28;20104;-58
2022/03/07 04:27:54;;;;;;;13.23;7.13;;;;;;;-3.67;100.00;95373.97;5036039;28;20502;-58
2022/03/07 04:30:20;;;;;;;12.23;7.15;;;;;;;-3.76;100.00;95378.41;5018189;28;20108;-58
2022/03/07 04:32:54;;;;;;;13.45;7.55;;;;;;;-3.83;100.00;95374.81;5036176;28;20461;-58
2022/03/07 04:35:20;;;;;;;11.85;7.22;;;;;;;-3.93;100.00;95375.00;5034927;28;20025;-57
2022/03/07 04:37:57;;;;;;;12.60;6.93;;;;;;;-4.01;100.00;95380.28;5035991;28;20063;-58
2022/03/07 04:40:23;;;;;;;12.82;7.18;;;;;;;-4.07;100.00;95374.91;5036020;28;20396;-58
2022/03/07 04:42:48;;;;;;;10.38;6.85;;;;;;;-4.12;100.00;95371.00;5035776;28;20032;-56
2022/03/07 04:45:14;;;;;;;11.23;7.40;;;;;;;-4.20;100.00;95370.19;5035777;28;20055;-57
2022/03/07 04:47:41;;;;;;;14.65;7.35;;;;;;;-4.29;100.00;95364.16;5018216;28;20025;-54
2022/03/07 04:50:12;;;;;;;11.00;6.72;;;;;;;-4.25;100.00;95369.88;5017787;28;20028;-58
2022/03/07 04:52:50;;;;;;;10.05;6.88;;;;;;;-4.31;100.00;95355.66;5034273;28;20507;-56
2022/03/07 04:55:15;;;;;;;14.07;7.07;;;;;;;-4.37;100.00;95364.16;5035200;28;20034;-58
2022/03/07 04:57:44;;;;;;;9.40;6.72;;;;;;;-4.46;100.00;95352.91;5023077;28;20013;-55
2022/03/07 05:00:11;;;;;;;13.05;7.85;;;;;;;-4.51;100.00;95349.97;4987913;28;20049;-57
2022/03/07 05:02:36;;;;;;;12.10;7.78;;;;;;;-4.50;100.00;95329.88;5027855;28;20025;-58
2022/03/07 05:05:02;;;;;;;13.18;8.32;;;;;;;-4.48;100.00;95322.69;5032739;28;20496;-58
2022/03/07 05:07:30;;;;;;;12.20;7.68;;;;;;;-4.48;100.00;95325.31;5035433;23;20062;-57
2022/03/07 05:10:03;;;;;;;12.98;7.80;;;;;;;-4.45;100.00;95317.13;4976838;28;20519;-56
2022/03/07 05:12:31;;;;;;;15.18;7.65;;;;;;;-4.46;100.00;95308.44;4994380;28;20116;-58
2022/03/07 05:14:57;;;;;;;15.60;8.55;;;;;;;-4.44;100.00;95297.84;4976352;28;20035;-56
2022/03/07 05:17:26;;;;;;;14.25;7.82;;;;;;;-4.40;100.00;95291.31;4978703;28;20033;-55
2022/03/07 05:19:54;;;;;;;11.50;7.25;;;;;;;-4.41;100.00;95295.72;4996402;28;20117;-52
2022/03/07 05:22:24;;;;;;;13.07;7.68;;;;;;;-4.39;100.00;95287.69;5013879;28;20073;-54
2022/03/07 05:24:53;;;;;;;13.52;8.23;;;;;;;-4.42;100.00;95275.78;5008650;28;20129;-52
2022/03/07 05:27:21;;;;;;;14.70;7.80;;;;;;;-4.39;100.00;95283.28;4994866;28;20045;-53
2022/03/07 05:29:47;;;;;;;14.40;7.75;;;;;;;-4.34;100.00;95279.34;4995293;28;20058;-55
2022/03/07 05:32:15;;;;;;;13.43;7.53;;;;;;;-4.33;100.00;95281.00;4995244;28;20062;-53
2022/03/07 05:34:40;;;;;;;13.02;8.18;;;;;;;-4.31;100.00;95281.63;4995332;28;20118;-56
2022/03/07 05:37:05;;;;;;;13.27;8.48;;;;;;;-4.35;100.00;95283.75;4995135;28;20109;-54
2022/03/07 05:39:37;;;;;;;16.02;8.40;;;;;;;-4.41;100.00;95274.78;4995303;28;20388;-56
2022/03/07 05:42:05;;;;;;;13.95;8.13;;;;;;;-4.42;100.00;95275.78;4995007;28;20457;-56
2022/03/07 05:44:31;;;;;;;11.48;7.88;;;;;;;-4.41;100.00;95280.03;4995210;28;20034;-57
2022/03/07 05:46:56;;;;;;;12.18;7.40;;;;;;;-4.38;100.00;95277.06;4995154;28;20034;-57
2022/03/07 05:49:28;;;;;;;12.77;8.23;;;;;;;-4.31;100.00;95272.00;4994984;28;20044;-58
2022/03/07 05:51:53;;;;;;;17.85;8.52;;;;;;;-4.32;100.00;95274.78;4993807;28;20523;-57
2022/03/07 05:54:25;;;;;;;14.27;8.80;;;;;;;-4.34;100.00;95272.34;4995189;28;20058;-57
2022/03/07 05:56:53;;;;;;;11.88;7.80;;;;;;;-4.32;100.00;95272.16;4977437;28;20022;-56
2022/03/07 05:59:19;;;;;;;12.27;8.55;;;;;;;-4.29;100.00;95270.03;4977550;28;20393;-56
2022/03/07 06:01:44;;;;;;;16.92;8.95;;;;;;;-4.29;100.00;95267.41;4994708;28;20030;-57
2022/03/07 06:04:09;;;;;;;12.82;7.75;;;;;;;-4.30;100.00;95271.00;4994740;28;20520;-57
2022/03/07 06:06:38;;;;;;;12.75;8.30;;;;;;;-4.35;100.00;95268.06;4994810;28;20081;-57
2022/03/07 06:09:03;;;;;;;13.30;8.63;;;;;;;-4.40;100.00;95270.38;4994589;28;20480;-57
2022/03/07 06:11:35;;;;;;;13.02;7.68;;;;;;;-4.39;100.00;95266.78;4994517;28;20060;-57
2022/03/07 06:14:00;;;;;;;19.55;8.38;;;;;;;-4.33;100.00;95266.13;4994668;28;20054;-55
2022/03/07 06:16:35;;;;;;;17.98;9.23;;;;;;;-4.27;100.00;95262.81;4994373;28;20072;-56
2022/03/07 06:19:00;;;;;;;15.77;8.80;;;;;;;-4.23;100.00;95265.94;4994528;28;20022;-50
2022/03/07 06:21:25;;;;;;;13.65;8.63;;;;;;;-4.26;100.00;95259.22;4994441;28;20026;-49
2022/03/07 06:23:51;;;;;;;14.30;8.48;;;;;;;-4.31;100.00;95263.34;4994573;28;20033;-50
2022/03/07 06:26:16;;;;;;;14.60;8.88;;;;;;;-4.32;100.00;95261.72;4994462;28;20022;-50
2022/03/07 06:28:42;;;;;;;14.52;8.77;;;;;;;-4.34;100.00;95256.66;4992510;28;20755;-52
2022/03/07 06:31:07;;;;;;;13.25;8.23;;;;;;;-4.24;100.00;95262.47;4994380;28;20055;-50
2022/03/07 06:33:32;;;;;;;16.55;9.50;;;;;;;-4.20;100.00;95255.94;4967868;28;20030;-52
2022/03/07 06:35:58;;;;;;;17.00;9.55;;;;;;;-4.17;100.00;95260.81;5004591;28;20617;-52
2022/03/07 06:38:23;;;;;;;13.52;8.07;;;;;;;-4.10;100.00;95251.31;4990653;28;20022;-52
2022/03/07 06:40:49;;;;;;;14.77;9.02;;;;;;;-3.98;100.00;95254.38;4992794;28;20134;-51
2022/03/07 06:43:14;;;;;;;14.60;8.70;;;;;;;-3.94;100.00;95246.97;5006486;28;20038;-49
2022/03/07 06:45:39;;;;;;;15.32;8.60;;;;;;;-3.92;100.00;95253.66;4991998;28;20034;-55
2022/03/07 06:48:05;;;;;;;15.93;8.85;;;;;;;-3.88;100.00;95257.59;4992187;28;20069;-51
2022/03/07 06:50:32;;;;;;;17.35;8.93;;;;;;;-3.87;100.00;95258.41;4972151;28;20054;-52
2022/03/07 06:52:58;;;;;;;17.05;9.05;;;;;;;-3.84;100.00;95256.25;4986867;28;20041;-49
2022/03/07 06:55:24;;;;;;;14.65;9.27;;;;;;;-3.82;100.00;95261.31;4975090;28;20114;-51
2022/03/07 06:57:50;;;;;;;14.05;9.32;;;;;;;-3.81;100.00;95266.34;4998805;28;20449;-51
2022/03/07 07:00:17;;;;;;;16.40;9.18;;;;;;;-3.71;100.00;95265.34;4955612;28;20073;-51
2022/03/07 07:02:43;;;;;;;14.82;9.32;;;;;;;-3.64;100.00;95258.44;4993701;28;20030;-51
2022/03/07 07:05:16;;;;;;;14.43;8.18;;;;;;;-3.56;100.00;95267.06;4976401;28;20029;-52
2022/03/07 07:07:47;;;;;;;14.35;8.23;;;;;;;-3.47;100.00;95267.81;4993262;28;20046;-54
2022/03/07 07:10:23;;;;;;;13.63;8.40;;;;;;;-3.45;100.00;95275.50;4993391;28;20081;-49
2022/03/07 07:12:49;;;;;;;14.07;8.82;;;;;;;-3.40;100.00;95276.59;4976046;28;20026;-55
2022/03/07 07:15:15;;;;;;;14.13;9.27;;;;;;;-3.29;100.00;95272.75;4993548;28;20040;-50
2022/03/07 07:17:44;;;;;;;15.10;9.57;;;;;;;-3.22;100.00;95286.78;4975986;28;20364;-50
2022/03/07 07:20:12;;;;;;;15.85;9.25;;;;;;;-3.11;100.00;95285.56;4993458;28;20022;-50
2022/03/07 07:22:40;;;;;;;13.80;8.35;;;;;;;-3.16;100.00;95287.88;4993343;28;20496;-49
2022/03/07 07:25:07;;;;;;;15.70;9.30;;;;;;;-3.12;100.00;95292.63;4993177;28;20057;-49
2022/03/07 07:27:32;;;;;;;14.43;9.65;;;;;;;-3.06;100.00;95288.47;4992351;28;20445;-50
2022/03/07 07:30:00;;;;;;;14.63;9.05;;;;;;;-3.04;100.00;95294.34;4992661;28;20113;-52
2022/03/07 07:32:29;;;;;;;14.80;9.38;;;;;;;-2.94;100.00;95282.63;5001885;28;20649;-52
2022/03/07 07:35:00;;;;;;;16.77;9.80;;;;;;;-2.72;100.00;95286.19;4990819;28;20068;-52
2022/03/07 07:37:26;;;;;;;13.38;8.77;;;;;;;-2.48;100.00;95287.00;5011113;28;20053;-50
2022/03/07 07:39:59;;;;;;;16.05;9.88;;;;;;;-2.36;100.00;95288.97;4993024;28;20050;-52
2022/03/07 07:42:31;;;;;;;13.50;8.80;;;;;;;-2.15;100.00;95296.13;4991845;28;20030;-54
2022/03/07 07:44:56;;;;;;;15.48;8.88;;;;;;;-2.06;100.00;95297.69;4995892;28;20563;-52
2022/03/07 07:47:25;;;;;;;14.35;9.75;;;;;;;-2.10;100.00;95311.34;5002836;28;20112;-51
2022/03/07 07:49:50;;;;;;;13.23;8.45;;;;;;;-1.89;100.00;95318.47;4968938;28;20092;-55
2022/03/07 07:52:15;;;;;;;16.10;9.95;;;;;;;-1.89;100.00;95324.53;4989926;28;20026;-54
2022/03/07 07:54:41;;;;;;;13.68;9.73;;;;;;;-1.79;100.00;95329.53;5002752;28;20038;-56
2022/03/07 07:57:07;;;;;;;18.30;10.23;;;;;;;-1.57;100.00;95346.16;4993232;28;20096;-56
2022/03/07 07:59:33;;;;;;;17.25;9.57;;;;;;;-1.50;100.00;95341.81;4993100;28;20022;-60
2022/03/07 08:02:02;;;;;;;15.63;9.50;;;;;;;-1.43;100.00;95361.06;4992989;28;20076;-59
2022/03/07 08:04:27;;;;;;;16.33;9.55;;;;;;;-1.30;100.00;95352.56;4992921;28;20030;-57
2022/03/07 08:06:58;;;;;;;16.70;9.25;;;;;;;-1.19;100.00;95366.03;4992877;28;20038;-58
2022/03/07 08:09:27;;;;;;;15.07;10.32;;;;;;;-1.13;100.00;95369.72;4991604;28;20444;-60
2022/03/07 08:11:58;;;;;;;16.15;9.85;;;;;;;-1.06;100.00;95380.31;4992846;28;20041;-57
2022/03/07 08:14:23;;;;;;;14.52;9.80;;;;;;;-1.11;100.00;95382.66;4975473;28;20342;-60
2022/03/07 08:16:49;;;;;;;15.88;9.48;;;;;;;-1.05;100.00;95398.53;4992640;28;20026;-56
2022/03/07 08:19:15;;;;;;;14.38;9.77;;;;;;;-0.93;100.00;95401.50;4992450;28;20449;-59
2022/03/07 08:21:41;;;;;;;16.27;9.30;;;;;;;-0.67;100.00;95406.19;4991395;28;20027;-59
2022/03/07 08:24:09;;;;;;;14.55;10.60;;;;;;;-0.76;100.00;95416.03;4992885;28;20033;-61
2022/03/07 08:26:34;;;;;;;16.60;9.98;;;;;;;-0.63;100.00;95420.63;4992698;28;20030;-60
2022/03/07 08:29:00;;;;;;;14.02;9.05;;;;;;;-0.70;100.00;95431.06;4992624;28;20105;-60
2022/03/07 08:31:25;;;;;;;17.23;10.02;;;;;;;-0.41;100.00;95424.88;4959356;28;20461;-62
2022/03/07 08:33:51;;;;;;;15.20;10.60;;;;;;;-0.34;100.00;95435.47;4991626;28;20437;-60
2022/03/07 08:36:22;;;;;;;15.02;10.30;;;;;;;-0.02;100.00;95437.56;4992482;28;20026;-62
2022/03/07 08:38:50;;;;;;;13.80;9.77;;;;;;;0.06;100.00;95447.16;4991398;28;20030;-62
2022/03/07 08:41:19;;;;;;;16.17;10.48;;;;;;;-0.06;100.00;95465.28;4975262;28;20552;-62
2022/03/07 08:43:45;;;;;;;14.23;9.90;;;;;;;-0.13;100.00;95458.31;4991391;28;20068;-60
2022/03/07 08:46:11;;;;;;;15.27;10.35;;;;;;;0.11;100.00;95463.22;4992912;28;20030;-62
2022/03/07 08:48:36;;;;;;;15.48;10.73;;;;;;;0.16;100.00;95473.97;4992393;28;20084;-58
2022/03/07 08:51:02;;;;;;;16.65;11.68;;;;;;;0.34;100.00;95472.69;4992454;28;20049;-60
2022/03/07 08:53:27;;;;;;;16.38;10.82;;;;;;;0.56;100.00;95483.00;4991817;28;20023;-61
2022/03/07 08:55:52;;;;;;;16.83;11.02;;;;;;;0.59;100.00;95494.97;4994946;28;20026;-60
2022/03/07 08:58:18;;;;;;;18.67;10.70;;;;;;;0.48;100.00;95509.50;4996014;28;20034;-60
2022/03/07 09:00:43;;;;;;;16.08;10.55;;;;;;;0.34;100.00;95520.94;4996027;28;20034;-59
2022/03/07 09:03:08;;;;;;;16.42;11.45;;;;;;;0.34;100.00;95531.47;4977684;28;20389;-60
2022/03/07 09:05:35;;;;;;;16.92;10.95;;;;;;;0.35;100.00;95543.66;4995883;28;20034;-58
2022/03/07 09:08:01;;;;;;;18.42;11.77;;;;;;;0.22;100.00;95544.34;4976718;28;20105;-57
2022/03/07 09:10:26;;;;;;;17.90;11.40;;;;;;;-0.03;100.00;95553.63;4978395;28;20575;-58
2022/03/07 09:12:54;;;;;;;18.08;11.73;;;;;;;0.30;100.00;95546.03;4995048;28;20030;-60
2022/03/07 09:15:20;;;;;;;16.20;11.15;;;;;;;0.57;100.00;95555.78;4977527;28;20034;-58
2022/03/07 09:17:45;;;;;;;18.83;12.10;;;;;;;0.26;100.00;95568.50;4995077;28;20035;-63
2022/03/07 09:20:13;;;;;;;17.55;10.63;;;;;;;0.69;100.00;95560.53;4995358;28;20058;-61
2022/03/07 09:22:41;;;;;;;16.88;11.32;;;;;;;0.58;100.00;95573.22;4978230;28;20033;-60
2022/03/07 09:25:07;;;;;;;17.10;12.10;;;;;;;0.85;100.00;95578.69;4994938;28;20041;-63
2022/03/07 09:27:33;;;;;;;17.83;11.40;;;;;;;0.84;100.00;95585.78;4995620;28;20109;-59
2022/03/07 09:29:58;;;;;;;17.15;11.52;;;;;;;0.79;100.00;95590.84;4986592;28;20117;-60
2022/03/07 09:32:23;;;;;;;16.75;11.75;;;;;;;0.69;100.00;95590.34;4995484;28;20088;-58
2022/03/07 09:34:52;;;;;;;19.17;12.00;;;;;;;0.77;100.00;95597.31;4977201;28;20080;-56
2022/03/07 09:37:17;;;;;;;17.30;11.52;;;;;;;1.24;100.00;95595.78;4995385;28;20481;-60
2022/03/07 09:39:48;;;;;;;17.85;11.55;;;;;;;1.27;100.00;95606.75;4994768;28;20044;-59
2022/03/07 09:42:14;;;;;;;17.63;11.88;;;;;;;1.22;100.00;95611.81;4995203;28;20030;-60
2022/03/07 09:44:39;;;;;;;18.02;12.07;;;;;;;1.54;100.00;95614.84;4994914;28;20026;-62
2022/03/07 09:47:05;;;;;;;17.70;11.77;;;;;;;1.56;100.00;95626.84;4994947;28;20047;-61
2022/03/07 09:49:31;;;;;;;18.67;12.18;;;;;;;1.54;100.00;95628.03;4995124;28;20113;-60
2022/03/07 09:51:58;;;;;;;21.30;11.80;;;;;;;1.41;100.00;95637.53;4994520;28;20034;-58
2022/03/07 09:54:23;;;;;;;18.55;12.13;;;;;;;1.29;100.00;95639.03;4974530;28;20027;-58
2022/03/07 09:56:56;;;;;;;18.33;12.27;;;;;;;1.58;100.00;95632.72;4985810;28;20034;-57
2022/03/07 09:59:22;;;;;;;18.88;12.55;;;;;;;1.80;100.00;95644.00;4994841;28;20532;-59
2022/03/07 10:02:02;;;;;;;15.77;11.40;;;;;;;1.68;100.00;95649.03;4994477;28;20068;-60
2022/03/07 10:04:30;;;;;;;18.80;11.60;;;;;;;2.12;100.00;95647.78;4977223;28;20129;-59
2022/03/07 10:07:01;;;;;;;17.73;12.13;;;;;;;2.20;100.00;95658.19;4994086;28;20492;-59
2022/03/07 10:09:30;;;;;;;18.83;12.40;;;;;;;2.56;100.00;95657.06;4994836;28;20049;-58
2022/03/07 10:12:00;;;;;;;18.63;11.95;;;;;;;2.50;100.00;95652.59;4994686;28;20485;-56
2022/03/07 10:14:42;;;;;;;18.13;12.32;;;;;;;2.83;100.00;95664.03;4994845;28;20038;-60
2022/03/07 10:17:27;;;;;;;16.25;11.25;;;;;;;3.40;100.00;95662.56;4993334;28;20022;-59
2022/03/07 10:19:55;;;;;;;20.00;12.25;;;;;;;3.58;100.00;95682.28;4977317;28;20374;-61
2022/03/07 10:22:26;;;;;;;16.83;11.90;;;;;;;3.46;100.00;95692.69;4976956;28;20065;-60
2022/03/07 10:25:08;;;;;;;16.60;11.93;;;;;;;3.38;100.00;95700.88;4977643;28;20132;-62
2022/03/07 10:27:44;;;;;;;16.17;12.27;;;;;;;2.54;100.00;95696.91;4994598;28;20290;-62
2022/03/07 10:30:13;;;;;;;17.60;11.90;;;;;;;2.73;100.00;95687.41;4994414;28;20035;-60
2022/03/07 10:32:39;;;;;;;19.30;12.07;;;;;;;3.15;100.00;95699.47;4986087;28;20427;-58
2022/03/07 10:35:06;;;;;;;20.55;12.18;;;;;;;3.37;100.00;95696.59;4967838;28;20053;-59
2022/03/07 10:37:37;;;;;;;17.48;12.27;;;;;;;2.87;100.00;95704.91;4991717;28;20033;-58
2022/03/07 10:40:07;;;;;;;17.52;12.00;;;;;;;3.30;100.00;95693.13;4966474;28;20030;-58
2022/03/07 10:42:35;;;;;;;17.63;11.88;;;;;;;3.45;100.00;95699.84;4986238;28;20038;-59
2022/03/07 10:45:07;;;;;;;17.45;12.32;;;;;;;3.42;100.00;95696.78;4992932;28;20026;-58
2022/03/07 10:47:35;;;;;;;20.13;12.70;;;;;;;3.61;100.00;95713.69;4992603;28;20058;-60
2022/03/07 10:50:03;;;;;;;19.35;12.27;;;;;;;3.61;100.00;95714.50;4999772;28;20032;-59
2022/03/07 10:52:36;;;;;;;16.15;11.93;;;;;;;4.17;100.00;95700.69;4977972;28;20089;-56
2022/03/07 10:55:07;;;;;;;16.85;11.98;;;;;;;3.91;100.00;95716.69;4972914;28;20035;-56
2022/03/07 10:57:41;;;;;;;17.80;12.05;;;;;;;4.04;100.00;95729.91;4987923;28;20552;-59
2022/03/07 11:00:18;;;;;;;20.85;12.70;;;;;;;4.24;100.00;95724.56;4987799;28;20023;-56
2022/03/07 11:02:46;;;;;;;18.38;12.95;;;;;;;4.17;100.00;95735.16;4976090;28;20059;-55
2022/03/07 11:05:16;;;;;;;18.05;12.65;;;;;;;3.82;100.00;95725.88;4987655;28;20489;-57
2022/03/07 11:07:44;;;;;;;16.80;12.93;;;;;;;3.46;100.00;95730.59;4978350;28;20066;-65
2022/03/07 11:10:12;;;;;;;20.38;12.68;;;;;;;3.73;100.00;95727.94;4978392;28;20037;-64
2022/03/07 11:12:40;;;;;;;17.70;11.60;;;;;;;3.90;100.00;95720.34;4958750;28;20509;-64
2022/03/07 11:15:18;;;;;;;17.73;12.70;;;;;;;4.08;100.00;95731.13;4960501;28;20031;-65
2022/03/07 11:17:46;;;;;;;17.65;12.05;;;;;;;4.13;100.00;95731.31;4974942;28;20473;-65
2022/03/07 11:20:20;;;;;;;19.15;12.65;;;;;;;4.21;100.00;95725.75;4987437;28;20029;-65